createdAt,value
2018-07-14T00:00:18.476Z,0.00
2018-07-14T00:01:18.400Z,0.00
2018-07-14T00:02:18.329Z,0.00
2018-07-14T00:03:18.251Z,0.00
2018-07-14T00:04:18.186Z,0.00
2018-07-14T00:05:18.104Z,0.00
2018-07-14T00:06:18.033Z,0.00
2018-07-14T00:07:17.955Z,0.00
2018-07-14T00:08:17.880Z,0.00
2018-07-14T00:09:17.807Z,0.00
2018-07-14T00:10:17.731Z,0.00
2018-07-14T00:11:17.657Z,0.00
2018-07-14T00:12:17.582Z,0.00
2018-07-14T00:13:17.514Z,0.00
2018-07-14T00:14:17.434Z,0.00
2018-07-14T00:15:17.364Z,0.00
2018-07-14T00:16:17.283Z,0.00
2018-07-14T00:17:17.209Z,0.00
2018-07-14T00:18:17.160Z,0.00
2018-07-14T00:19:17.062Z,0.00
2018-07-14T00:20:16.991Z,0.00
2018-07-14T00:21:16.919Z,0.00
2018-07-14T00:22:16.854Z,0.00
2018-07-14T00:23:16.768Z,0.00
2018-07-14T00:24:16.707Z,0.00
2018-07-14T00:25:16.669Z,0.00
2018-07-14T00:26:16.557Z,0.00
2018-07-14T00:27:16.472Z,0.00
2018-07-14T00:28:16.398Z,0.00
2018-07-14T00:29:16.317Z,0.00
2018-07-14T00:30:16.242Z,0.00
2018-07-14T00:31:16.166Z,0.00
2018-07-14T00:32:16.119Z,0.00
2018-07-14T00:33:16.019Z,0.00
2018-07-14T00:34:15.945Z,0.00
2018-07-14T00:35:15.878Z,0.00
2018-07-14T00:36:15.795Z,0.00
2018-07-14T00:37:15.720Z,0.00
2018-07-14T00:38:15.646Z,0.00
2018-07-14T00:39:15.571Z,0.00
2018-07-14T00:40:15.494Z,0.00
2018-07-14T00:41:15.421Z,0.00
2018-07-14T00:42:15.350Z,0.00
2018-07-14T00:43:15.272Z,0.00
2018-07-14T00:44:15.201Z,0.00
2018-07-14T00:45:15.127Z,0.00
2018-07-14T00:46:15.047Z,0.00
2018-07-14T00:47:14.983Z,0.00
2018-07-14T00:48:14.898Z,0.00
2018-07-14T00:49:14.825Z,0.00
2018-07-14T00:50:14.754Z,0.00
2018-07-14T00:51:14.682Z,0.00
2018-07-14T00:52:14.610Z,0.00
2018-07-14T00:53:14.526Z,0.00
2018-07-14T00:54:14.452Z,0.00
2018-07-14T00:55:14.381Z,0.00
2018-07-14T00:56:14.309Z,0.00
2018-07-14T00:57:14.233Z,0.00
2018-07-14T00:58:14.158Z,0.00
2018-07-14T00:59:14.080Z,0.00
2018-07-14T01:00:14.005Z,0.00
2018-07-14T01:01:13.948Z,0.00
2018-07-14T01:02:13.860Z,0.00
2018-07-14T01:03:13.779Z,0.00
2018-07-14T01:04:13.710Z,0.00
2018-07-14T01:05:13.665Z,0.00
2018-07-14T01:06:13.569Z,0.00
2018-07-14T01:07:13.486Z,0.00
2018-07-14T01:08:13.406Z,0.00
2018-07-14T01:09:13.335Z,0.00
2018-07-14T01:10:13.260Z,0.00
2018-07-14T01:11:13.189Z,0.00
2018-07-14T01:12:13.107Z,0.00
2018-07-14T01:13:13.032Z,0.00
2018-07-14T01:14:12.957Z,0.00
2018-07-14T01:15:12.882Z,0.00
2018-07-14T01:16:12.806Z,0.00
2018-07-14T01:17:12.733Z,0.00
2018-07-14T01:18:12.662Z,0.00
2018-07-14T01:19:12.583Z,0.00
2018-07-14T01:20:12.508Z,0.00
2018-07-14T01:21:12.431Z,0.00
2018-07-14T01:22:12.359Z,0.00
2018-07-14T01:23:12.284Z,0.00
2018-07-14T01:24:12.215Z,0.00
2018-07-14T01:25:12.133Z,0.00
2018-07-14T01:26:12.080Z,0.00
2018-07-14T01:27:11.982Z,0.00
2018-07-14T01:28:11.906Z,0.00
2018-07-14T01:29:11.833Z,0.00
2018-07-14T01:30:11.761Z,0.00
2018-07-14T01:31:11.697Z,0.00
2018-07-14T01:32:11.606Z,0.00
2018-07-14T01:33:11.552Z,0.00
2018-07-14T01:34:11.459Z,0.00
2018-07-14T01:35:11.385Z,0.00
2018-07-14T01:36:11.311Z,0.00
2018-07-14T01:37:11.276Z,0.00
2018-07-14T01:38:11.155Z,0.00
2018-07-14T01:39:11.089Z,0.00
2018-07-14T01:40:11.011Z,0.00
2018-07-14T01:41:10.930Z,0.00
2018-07-14T01:42:10.861Z,0.00
2018-07-14T01:43:10.784Z,0.00
2018-07-14T01:44:10.712Z,0.00
2018-07-14T01:45:10.632Z,0.00
2018-07-14T01:46:10.563Z,0.00
2018-07-14T01:47:10.480Z,0.00
2018-07-14T01:48:10.407Z,0.00
2018-07-14T01:49:10.333Z,0.00
2018-07-14T01:50:10.253Z,0.00
2018-07-14T01:51:10.188Z,0.00
2018-07-14T01:52:10.110Z,0.00
2018-07-14T01:53:10.029Z,0.00
2018-07-14T01:54:09.952Z,0.00
2018-07-14T01:55:09.884Z,0.00
2018-07-14T01:56:09.818Z,0.00
2018-07-14T01:57:09.732Z,0.00
2018-07-14T01:58:09.655Z,0.00
2018-07-14T01:59:09.599Z,0.00
2018-07-14T02:00:09.503Z,0.00
2018-07-14T02:01:09.452Z,0.00
2018-07-14T02:02:09.354Z,0.00
2018-07-14T02:03:09.279Z,0.00
2018-07-14T02:04:09.202Z,0.00
2018-07-14T02:05:09.128Z,0.00
2018-07-14T02:06:09.053Z,0.00
2018-07-14T02:07:08.977Z,0.00
2018-07-14T02:08:08.901Z,0.00
2018-07-14T02:09:08.838Z,0.00
2018-07-14T02:10:08.752Z,0.00
2018-07-14T02:11:08.676Z,0.00
2018-07-14T02:12:08.605Z,0.00
2018-07-14T02:13:08.530Z,0.00
2018-07-14T02:14:08.452Z,0.00
2018-07-14T02:15:08.381Z,0.00
2018-07-14T02:16:08.316Z,0.00
2018-07-14T02:17:08.225Z,0.00
2018-07-14T02:18:08.152Z,0.00
2018-07-14T02:19:08.073Z,0.00
2018-07-14T02:20:08.000Z,0.00
2018-07-14T02:21:07.925Z,0.00
2018-07-14T02:22:07.848Z,0.00
2018-07-14T02:23:07.776Z,0.00
2018-07-14T02:24:07.697Z,0.00
2018-07-14T02:25:07.625Z,0.00
2018-07-14T02:26:07.556Z,0.00
2018-07-14T02:27:07.473Z,0.00
2018-07-14T02:28:07.400Z,0.00
2018-07-14T02:29:07.325Z,0.00
2018-07-14T02:30:07.243Z,0.00
2018-07-14T02:31:07.182Z,0.00
2018-07-14T02:32:07.094Z,0.00
2018-07-14T02:33:07.018Z,0.00
2018-07-14T02:34:06.944Z,0.00
2018-07-14T02:35:06.872Z,0.00
2018-07-14T02:36:06.793Z,0.00
2018-07-14T02:37:06.721Z,0.00
2018-07-14T02:38:06.642Z,0.00
2018-07-14T02:39:06.567Z,0.00
2018-07-14T02:40:06.495Z,0.00
2018-07-14T02:41:06.418Z,0.00
2018-07-14T02:42:06.338Z,0.00
2018-07-14T02:43:06.264Z,0.00
2018-07-14T02:44:06.190Z,0.00
2018-07-14T02:45:06.154Z,0.00
2018-07-14T02:46:06.039Z,0.00
2018-07-14T02:47:05.966Z,0.00
2018-07-14T02:48:05.894Z,0.00
2018-07-14T02:49:05.811Z,0.00
2018-07-14T02:50:05.738Z,0.00
2018-07-14T02:51:05.666Z,0.00
2018-07-14T02:52:05.585Z,0.00
2018-07-14T02:53:05.515Z,0.00
2018-07-14T02:54:05.437Z,0.00
2018-07-14T02:55:05.361Z,0.00
2018-07-14T02:56:05.286Z,0.00
2018-07-14T02:57:05.211Z,0.00
2018-07-14T02:58:05.131Z,0.00
2018-07-14T02:59:05.066Z,0.00
2018-07-14T03:00:04.984Z,0.00
2018-07-14T03:01:04.933Z,0.00
2018-07-14T03:02:04.844Z,0.00
2018-07-14T03:03:04.901Z,0.00
2018-07-14T03:04:04.677Z,0.00
2018-07-14T03:05:04.603Z,0.00
2018-07-14T03:06:04.546Z,0.00
2018-07-14T03:07:04.453Z,0.00
2018-07-14T03:08:04.378Z,0.00
2018-07-14T03:09:04.304Z,0.00
2018-07-14T03:10:04.225Z,0.00
2018-07-14T03:11:04.150Z,0.00
2018-07-14T03:12:04.083Z,0.00
2018-07-14T03:13:03.998Z,0.00
2018-07-14T03:14:03.922Z,0.00
2018-07-14T03:15:03.846Z,0.00
2018-07-14T03:16:03.788Z,0.00
2018-07-14T03:17:03.697Z,0.00
2018-07-14T03:18:03.620Z,0.00
2018-07-14T03:19:03.547Z,5.63
2018-07-14T03:20:03.468Z,5.63
2018-07-14T03:21:03.398Z,5.63
2018-07-14T03:22:03.321Z,5.63
2018-07-14T03:23:03.241Z,5.63
2018-07-14T03:24:03.166Z,5.63
2018-07-14T03:25:03.091Z,5.63
2018-07-14T03:26:03.014Z,5.63
2018-07-14T03:27:02.952Z,5.63
2018-07-14T03:28:02.863Z,11.25
2018-07-14T03:29:02.788Z,11.25
2018-07-14T03:30:02.716Z,11.25
2018-07-14T03:31:02.641Z,11.25
2018-07-14T03:32:02.560Z,11.25
2018-07-14T03:33:02.488Z,11.25
2018-07-14T03:34:02.415Z,11.25
2018-07-14T03:35:02.340Z,16.88
2018-07-14T03:36:02.260Z,16.88
2018-07-14T03:37:02.202Z,16.88
2018-07-14T03:38:02.119Z,16.88
2018-07-14T03:39:02.038Z,16.88
2018-07-14T03:40:01.958Z,16.88
2018-07-14T03:41:01.888Z,22.50
2018-07-14T03:42:01.821Z,22.50
2018-07-14T03:43:01.866Z,22.50
2018-07-14T03:44:01.654Z,22.50
2018-07-14T03:45:01.577Z,22.50
2018-07-14T03:46:01.502Z,22.50
2018-07-14T03:47:01.458Z,28.13
2018-07-14T03:48:01.365Z,28.13
2018-07-14T03:49:01.276Z,28.13
2018-07-14T03:50:01.198Z,28.13
2018-07-14T03:51:01.131Z,28.13
2018-07-14T03:52:01.069Z,28.13
2018-07-14T03:53:00.976Z,33.75
2018-07-14T03:54:00.896Z,33.75
2018-07-14T03:55:00.821Z,33.75
2018-07-14T03:56:00.746Z,33.75
2018-07-14T03:57:00.701Z,33.75
2018-07-14T03:58:00.602Z,39.38
2018-07-14T03:59:00.521Z,39.38
2018-07-14T04:00:00.442Z,39.38
2018-07-14T04:01:00.373Z,39.38
2018-07-14T04:02:00.295Z,45.00
2018-07-14T04:03:00.216Z,45.00
2018-07-14T04:04:00.140Z,50.63
2018-07-14T04:05:00.064Z,50.63
2018-07-14T04:05:59.988Z,50.63
2018-07-14T04:06:59.916Z,56.25
2018-07-14T04:07:59.838Z,56.25
2018-07-14T04:08:59.761Z,61.88
2018-07-14T04:09:59.685Z,61.88
2018-07-14T04:10:59.611Z,61.88
2018-07-14T04:11:59.534Z,61.88
2018-07-14T04:12:59.465Z,61.88
2018-07-14T04:13:59.382Z,67.50
2018-07-14T04:14:59.309Z,67.50
2018-07-14T04:15:59.230Z,67.50
2018-07-14T04:16:59.156Z,73.13
2018-07-14T04:17:59.079Z,73.13
2018-07-14T04:18:59.018Z,78.75
2018-07-14T04:19:58.931Z,78.75
2018-07-14T04:20:58.856Z,84.38
2018-07-14T04:21:58.777Z,84.38
2018-07-14T04:22:58.720Z,84.38
2018-07-14T04:23:58.628Z,90.00
2018-07-14T04:24:58.555Z,90.00
2018-07-14T04:25:58.475Z,95.63
2018-07-14T04:26:58.401Z,95.63
2018-07-14T04:27:58.336Z,95.63
2018-07-14T04:28:58.261Z,101.25
2018-07-14T04:29:58.168Z,101.25
2018-07-14T04:30:58.097Z,106.88
2018-07-14T04:31:58.024Z,106.88
2018-07-14T04:32:57.946Z,112.50
2018-07-14T04:33:57.880Z,112.50
2018-07-14T04:34:57.800Z,118.13
2018-07-14T04:35:57.731Z,118.13
2018-07-14T04:36:57.644Z,123.75
2018-07-14T04:37:57.566Z,123.75
2018-07-14T04:38:57.492Z,129.38
2018-07-14T04:39:57.420Z,129.38
2018-07-14T04:40:57.344Z,129.38
2018-07-14T04:41:57.270Z,135.00
2018-07-14T04:42:57.192Z,135.00
2018-07-14T04:43:57.130Z,135.00
2018-07-14T04:44:57.052Z,135.00
2018-07-14T04:45:56.978Z,135.00
2018-07-14T04:46:56.895Z,135.00
2018-07-14T04:47:56.815Z,135.00
2018-07-14T04:48:56.741Z,140.63
2018-07-14T04:49:56.664Z,140.63
2018-07-14T04:50:56.593Z,140.63
2018-07-14T04:51:56.522Z,140.63
2018-07-14T04:52:56.443Z,140.63
2018-07-14T04:53:56.366Z,140.63
2018-07-14T04:54:56.291Z,140.63
2018-07-14T04:55:56.218Z,140.63
2018-07-14T04:56:56.141Z,146.25
2018-07-14T04:57:56.071Z,140.63
2018-07-14T04:58:56.008Z,140.63
2018-07-14T04:59:55.918Z,140.63
2018-07-14T05:00:55.840Z,140.63
2018-07-14T05:01:55.766Z,140.63
2018-07-14T05:02:55.693Z,140.63
2018-07-14T05:03:55.623Z,140.63
2018-07-14T05:04:55.555Z,140.63
2018-07-14T05:05:55.466Z,140.63
2018-07-14T05:06:55.393Z,140.63
2018-07-14T05:07:55.339Z,140.63
2018-07-14T05:08:55.243Z,140.63
2018-07-14T05:09:55.221Z,140.63
2018-07-14T05:10:55.127Z,140.63
2018-07-14T05:11:55.072Z,146.25
2018-07-14T05:12:55.006Z,146.25
2018-07-14T05:13:54.943Z,146.25
2018-07-14T05:14:54.808Z,146.25
2018-07-14T05:15:54.794Z,146.25
2018-07-14T05:16:54.647Z,146.25
2018-07-14T05:17:54.604Z,146.25
2018-07-14T05:18:54.561Z,146.25
2018-07-14T05:19:54.456Z,146.25
2018-07-14T05:20:54.435Z,151.88
2018-07-14T05:21:54.297Z,151.88
2018-07-14T05:22:54.235Z,151.88
2018-07-14T05:23:54.172Z,151.88
2018-07-14T05:24:54.052Z,151.88
2018-07-14T05:25:54.021Z,157.50
2018-07-14T05:26:53.917Z,157.50
2018-07-14T05:27:53.873Z,157.50
2018-07-14T05:28:53.773Z,157.50
2018-07-14T05:29:53.681Z,157.50
2018-07-14T05:30:53.650Z,168.75
2018-07-14T05:31:53.554Z,163.13
2018-07-14T05:32:53.509Z,163.13
2018-07-14T05:33:53.382Z,163.13
2018-07-14T05:34:53.384Z,163.13
2018-07-14T05:35:53.278Z,168.75
2018-07-14T05:36:53.185Z,168.75
2018-07-14T05:37:53.117Z,168.75
2018-07-14T05:38:53.046Z,168.75
2018-07-14T05:39:52.990Z,168.75
2018-07-14T05:40:52.930Z,168.75
2018-07-14T05:41:52.854Z,174.38
2018-07-14T05:42:52.791Z,174.38
2018-07-14T05:43:52.710Z,174.38
2018-07-14T05:44:52.592Z,174.38
2018-07-14T05:45:52.555Z,174.38
2018-07-14T05:46:52.452Z,174.38
2018-07-14T05:47:52.363Z,174.38
2018-07-14T05:48:53.182Z,180.00
2018-07-14T05:49:53.179Z,180.00
2018-07-14T05:50:52.184Z,180.00
2018-07-14T05:51:52.056Z,180.00
2018-07-14T05:52:52.017Z,180.00
2018-07-14T05:53:51.915Z,180.00
2018-07-14T05:54:51.903Z,180.00
2018-07-14T05:55:52.662Z,185.63
2018-07-14T05:56:51.749Z,185.63
2018-07-14T05:57:51.641Z,185.63
2018-07-14T05:58:51.553Z,185.63
2018-07-14T05:59:51.479Z,185.63
2018-07-14T06:00:51.409Z,185.63
2018-07-14T06:01:51.376Z,185.63
2018-07-14T06:02:51.250Z,185.63
2018-07-14T06:03:51.221Z,185.63
2018-07-14T06:04:51.122Z,185.63
2018-07-14T06:05:51.056Z,185.63
2018-07-14T06:06:50.975Z,185.63
2018-07-14T06:07:50.951Z,185.63
2018-07-14T06:08:50.849Z,191.25
2018-07-14T06:09:50.750Z,191.25
2018-07-14T06:10:50.719Z,191.25
2018-07-14T06:11:50.630Z,191.25
2018-07-14T06:12:50.505Z,191.25
2018-07-14T06:13:50.426Z,191.25
2018-07-14T06:14:50.377Z,196.88
2018-07-14T06:15:50.280Z,196.88
2018-07-14T06:16:50.251Z,196.88
2018-07-14T06:17:50.136Z,196.88
2018-07-14T06:18:50.065Z,196.88
2018-07-14T06:19:50.050Z,196.88
2018-07-14T06:20:49.977Z,196.88
2018-07-14T06:21:49.904Z,196.88
2018-07-14T06:22:49.809Z,196.88
2018-07-14T06:23:49.762Z,196.88
2018-07-14T06:24:49.678Z,196.88
2018-07-14T06:25:50.136Z,196.88
2018-07-14T06:26:51.164Z,202.50
2018-07-14T06:27:49.438Z,202.50
2018-07-14T06:28:49.391Z,208.13
2018-07-14T06:29:49.260Z,208.13
2018-07-14T06:30:50.178Z,213.75
2018-07-14T06:31:49.171Z,219.38
2018-07-14T06:32:49.105Z,219.38
2018-07-14T06:33:49.019Z,225.00
2018-07-14T06:34:48.933Z,230.63
2018-07-14T06:35:48.877Z,236.25
2018-07-14T06:36:48.804Z,236.25
2018-07-14T06:37:48.738Z,241.88
2018-07-14T06:38:48.618Z,253.13
2018-07-14T06:39:48.654Z,264.38
2018-07-14T06:40:48.509Z,264.38
2018-07-14T06:41:48.391Z,286.88
2018-07-14T06:42:48.307Z,303.75
2018-07-14T06:43:48.296Z,309.38
2018-07-14T06:44:48.305Z,303.75
2018-07-14T06:45:48.143Z,298.13
2018-07-14T06:46:48.088Z,286.88
2018-07-14T06:47:48.000Z,281.25
2018-07-14T06:48:48.707Z,286.88
2018-07-14T06:49:47.873Z,286.88
2018-07-14T06:50:47.783Z,286.88
2018-07-14T06:51:48.696Z,275.63
2018-07-14T06:52:47.645Z,230.63
2018-07-14T06:53:47.508Z,258.75
2018-07-14T06:54:47.467Z,208.13
2018-07-14T06:55:47.364Z,225.00
2018-07-14T06:56:47.296Z,196.88
2018-07-14T06:57:47.223Z,191.25
2018-07-14T06:58:47.152Z,185.63
2018-07-14T06:59:47.080Z,180.00
2018-07-14T07:00:47.002Z,174.38
2018-07-14T07:01:46.931Z,174.38
2018-07-14T07:02:46.859Z,185.63
2018-07-14T07:03:46.800Z,191.25
2018-07-14T07:04:46.714Z,196.88
2018-07-14T07:05:46.643Z,202.50
2018-07-14T07:06:46.571Z,213.75
2018-07-14T07:07:46.502Z,225.00
2018-07-14T07:08:46.440Z,219.38
2018-07-14T07:09:46.354Z,230.63
2018-07-14T07:10:46.282Z,219.38
2018-07-14T07:11:46.213Z,219.38
2018-07-14T07:12:46.138Z,219.38
2018-07-14T07:13:46.128Z,213.75
2018-07-14T07:14:45.995Z,213.75
2018-07-14T07:15:45.922Z,213.75
2018-07-14T07:16:45.863Z,213.75
2018-07-14T07:17:45.781Z,213.75
2018-07-14T07:18:45.708Z,213.75
2018-07-14T07:19:45.647Z,213.75
2018-07-14T07:20:45.564Z,213.75
2018-07-14T07:21:45.493Z,213.75
2018-07-14T07:22:45.416Z,213.75
2018-07-14T07:23:45.346Z,213.75
2018-07-14T07:24:45.276Z,213.75
2018-07-14T07:25:45.202Z,213.75
2018-07-14T07:26:45.138Z,219.38
2018-07-14T07:27:45.095Z,219.38
2018-07-14T07:28:45.055Z,219.38
2018-07-14T07:29:44.920Z,219.38
2018-07-14T07:30:44.844Z,219.38
2018-07-14T07:31:44.772Z,225.00
2018-07-14T07:32:44.701Z,225.00
2018-07-14T07:33:44.629Z,219.38
2018-07-14T07:34:44.578Z,219.38
2018-07-14T07:35:44.485Z,219.38
2018-07-14T07:36:44.437Z,225.00
2018-07-14T07:37:44.341Z,225.00
2018-07-14T07:38:44.268Z,225.00
2018-07-14T07:39:44.199Z,230.63
2018-07-14T07:40:44.125Z,230.63
2018-07-14T07:41:44.053Z,236.25
2018-07-14T07:42:43.997Z,236.25
2018-07-14T07:43:43.909Z,241.88
2018-07-14T07:44:43.836Z,241.88
2018-07-14T07:45:43.768Z,247.50
2018-07-14T07:46:43.696Z,253.13
2018-07-14T07:47:43.622Z,253.13
2018-07-14T07:48:43.552Z,258.75
2018-07-14T07:49:43.480Z,258.75
2018-07-14T07:50:43.412Z,258.75
2018-07-14T07:51:43.336Z,264.38
2018-07-14T07:52:43.271Z,270.00
2018-07-14T07:53:43.193Z,275.63
2018-07-14T07:54:43.123Z,281.25
2018-07-14T07:55:43.053Z,286.88
2018-07-14T07:56:42.977Z,298.13
2018-07-14T07:57:42.906Z,303.75
2018-07-14T07:58:42.844Z,303.75
2018-07-14T07:59:42.775Z,309.38
2018-07-14T08:00:42.695Z,315.00
2018-07-14T08:01:42.623Z,315.00
2018-07-14T08:02:42.551Z,315.00
2018-07-14T08:03:42.479Z,292.50
2018-07-14T08:04:42.409Z,298.13
2018-07-14T08:05:42.350Z,286.88
2018-07-14T08:06:42.280Z,309.38
2018-07-14T08:07:42.202Z,320.63
2018-07-14T08:08:42.163Z,326.25
2018-07-14T08:09:42.054Z,343.13
2018-07-14T08:10:41.990Z,360.00
2018-07-14T08:11:41.915Z,354.38
2018-07-14T08:12:41.844Z,348.75
2018-07-14T08:13:41.782Z,354.38
2018-07-14T08:14:41.703Z,348.75
2018-07-14T08:15:41.654Z,348.75
2018-07-14T08:16:41.569Z,365.63
2018-07-14T08:17:41.489Z,348.75
2018-07-14T08:18:41.422Z,337.50
2018-07-14T08:19:41.352Z,343.13
2018-07-14T08:20:41.291Z,320.63
2018-07-14T08:21:41.207Z,320.63
2018-07-14T08:22:41.144Z,337.50
2018-07-14T08:23:41.067Z,331.88
2018-07-14T08:24:40.997Z,337.50
2018-07-14T08:25:40.924Z,337.50
2018-07-14T08:26:40.857Z,331.88
2018-07-14T08:27:40.788Z,320.63
2018-07-14T08:28:40.724Z,326.25
2018-07-14T08:29:40.643Z,337.50
2018-07-14T08:30:40.579Z,365.63
2018-07-14T08:31:40.590Z,331.88
2018-07-14T08:32:40.489Z,320.63
2018-07-14T08:33:40.468Z,298.13
2018-07-14T08:34:40.348Z,292.50
2018-07-14T08:35:40.281Z,292.50
2018-07-14T08:36:40.159Z,298.13
2018-07-14T08:37:40.155Z,292.50
2018-07-14T08:38:40.079Z,303.75
2018-07-14T08:39:40.006Z,281.25
2018-07-14T08:40:39.946Z,253.13
2018-07-14T08:41:39.851Z,247.50
2018-07-14T08:42:39.812Z,241.88
2018-07-14T08:43:39.745Z,270.00
2018-07-14T08:44:39.669Z,258.75
2018-07-14T08:45:39.649Z,275.63
2018-07-14T08:46:40.249Z,270.00
2018-07-14T08:47:39.463Z,270.00
2018-07-14T08:48:39.385Z,264.38
2018-07-14T08:49:39.244Z,258.75
2018-07-14T08:50:39.176Z,253.13
2018-07-14T08:51:39.147Z,253.13
2018-07-14T08:52:39.035Z,253.13
2018-07-14T08:53:38.971Z,253.13
2018-07-14T08:54:38.895Z,253.13
2018-07-14T08:55:38.837Z,247.50
2018-07-14T08:56:38.757Z,247.50
2018-07-14T08:57:38.690Z,247.50
2018-07-14T08:58:38.617Z,247.50
2018-07-14T08:59:38.546Z,247.50
2018-07-14T09:00:38.480Z,247.50
2018-07-14T09:01:38.406Z,247.50
2018-07-14T09:02:38.338Z,247.50
2018-07-14T09:03:38.318Z,247.50
2018-07-14T09:04:38.196Z,247.50
2018-07-14T09:05:38.129Z,247.50
2018-07-14T09:06:38.057Z,247.50
2018-07-14T09:07:37.993Z,247.50
2018-07-14T09:08:37.927Z,247.50
2018-07-14T09:09:37.847Z,247.50
2018-07-14T09:10:37.783Z,253.13
2018-07-14T09:11:37.726Z,253.13
2018-07-14T09:12:37.643Z,241.88
2018-07-14T09:13:37.571Z,253.13
2018-07-14T09:14:37.501Z,258.75
2018-07-14T09:15:37.451Z,258.75
2018-07-14T09:16:37.361Z,258.75
2018-07-14T09:17:37.292Z,258.75
2018-07-14T09:18:37.223Z,258.75
2018-07-14T09:19:37.151Z,264.38
2018-07-14T09:20:37.082Z,264.38
2018-07-14T09:21:37.012Z,264.38
2018-07-14T09:22:36.943Z,264.38
2018-07-14T09:23:36.888Z,264.38
2018-07-14T09:24:36.803Z,270.00
2018-07-14T09:25:36.734Z,264.38
2018-07-14T09:26:36.664Z,270.00
2018-07-14T09:27:36.596Z,270.00
2018-07-14T09:28:36.530Z,270.00
2018-07-14T09:29:36.453Z,270.00
2018-07-14T09:30:36.386Z,270.00
2018-07-14T09:31:36.341Z,270.00
2018-07-14T09:32:36.300Z,270.00
2018-07-14T09:33:36.176Z,275.63
2018-07-14T09:34:36.107Z,275.63
2018-07-14T09:35:36.054Z,281.25
2018-07-14T09:36:35.970Z,281.25
2018-07-14T09:37:35.896Z,281.25
2018-07-14T09:38:35.829Z,286.88
2018-07-14T09:39:35.759Z,286.88
2018-07-14T09:40:35.689Z,286.88
2018-07-14T09:41:35.620Z,281.25
2018-07-14T09:42:35.548Z,286.88
2018-07-14T09:43:35.486Z,292.50
2018-07-14T09:44:35.461Z,309.38
2018-07-14T09:45:35.342Z,315.00
2018-07-14T09:46:35.272Z,326.25
2018-07-14T09:47:35.253Z,331.88
2018-07-14T09:48:35.133Z,309.38
2018-07-14T09:49:35.065Z,331.88
2018-07-14T09:50:34.995Z,343.13
2018-07-14T09:51:34.934Z,326.25
2018-07-14T09:52:34.856Z,343.13
2018-07-14T09:53:34.785Z,331.88
2018-07-14T09:54:34.724Z,354.38
2018-07-14T09:55:34.651Z,337.50
2018-07-14T09:56:34.648Z,337.50
2018-07-14T09:57:34.517Z,354.38
2018-07-14T09:58:34.466Z,393.75
2018-07-14T09:59:34.374Z,438.75
2018-07-14T10:00:34.301Z,444.38
2018-07-14T10:01:34.232Z,450.00
2018-07-14T10:02:34.188Z,466.88
2018-07-14T10:03:34.095Z,483.75
2018-07-14T10:04:34.026Z,495.00
2018-07-14T10:05:33.964Z,489.38
2018-07-14T10:06:33.886Z,483.75
2018-07-14T10:07:33.824Z,489.38
2018-07-14T10:08:33.751Z,495.00
2018-07-14T10:09:33.680Z,455.63
2018-07-14T10:10:33.619Z,455.63
2018-07-14T10:11:33.545Z,523.13
2018-07-14T10:12:33.475Z,489.38
2018-07-14T10:13:33.406Z,472.50
2018-07-14T10:14:33.338Z,455.63
2018-07-14T10:15:33.271Z,450.00
2018-07-14T10:16:33.202Z,433.13
2018-07-14T10:17:33.135Z,421.88
2018-07-14T10:18:33.069Z,410.63
2018-07-14T10:19:33.081Z,405.00
2018-07-14T10:20:32.987Z,399.38
2018-07-14T10:21:32.918Z,399.38
2018-07-14T10:22:32.851Z,382.50
2018-07-14T10:23:32.802Z,365.63
2018-07-14T10:24:32.758Z,348.75
2018-07-14T10:25:32.670Z,360.00
2018-07-14T10:26:32.574Z,410.63
2018-07-14T10:27:32.508Z,410.63
2018-07-14T10:28:32.455Z,416.25
2018-07-14T10:29:32.390Z,416.25
2018-07-14T10:30:32.291Z,382.50
2018-07-14T10:31:32.196Z,444.38
2018-07-14T10:32:32.170Z,427.50
2018-07-14T10:33:32.120Z,382.50
2018-07-14T10:34:31.973Z,360.00
2018-07-14T10:35:31.905Z,298.13
2018-07-14T10:36:31.850Z,309.38
2018-07-14T10:37:31.773Z,309.38
2018-07-14T10:38:31.720Z,292.50
2018-07-14T10:39:31.631Z,241.88
2018-07-14T10:40:31.562Z,191.25
2018-07-14T10:41:31.495Z,157.50
2018-07-14T10:42:31.508Z,135.00
2018-07-14T10:43:31.394Z,118.13
2018-07-14T10:44:31.295Z,118.13
2018-07-14T10:45:31.224Z,106.88
2018-07-14T10:46:31.155Z,101.25
2018-07-14T10:47:31.088Z,101.25
2018-07-14T10:48:31.019Z,101.25
2018-07-14T10:49:30.955Z,101.25
2018-07-14T10:50:30.881Z,101.25
2018-07-14T10:51:30.856Z,106.88
2018-07-14T10:52:30.760Z,106.88
2018-07-14T10:53:30.676Z,112.50
2018-07-14T10:54:30.612Z,118.13
2018-07-14T10:55:30.554Z,118.13
2018-07-14T10:56:30.474Z,118.13
2018-07-14T10:57:30.400Z,118.13
2018-07-14T10:58:30.354Z,118.13
2018-07-14T10:59:30.267Z,123.75
2018-07-14T11:00:30.196Z,118.13
2018-07-14T11:01:30.127Z,118.13
2018-07-14T11:02:30.086Z,118.13
2018-07-14T11:03:29.991Z,112.50
2018-07-14T11:04:29.934Z,112.50
2018-07-14T11:05:29.849Z,112.50
2018-07-14T11:06:29.786Z,112.50
2018-07-14T11:07:30.225Z,112.50
2018-07-14T11:08:29.642Z,123.75
2018-07-14T11:09:29.573Z,123.75
2018-07-14T11:10:29.503Z,135.00
2018-07-14T11:11:29.436Z,151.88
2018-07-14T11:12:29.368Z,168.75
2018-07-14T11:13:29.294Z,185.63
2018-07-14T11:14:29.225Z,208.13
2018-07-14T11:15:29.157Z,230.63
2018-07-14T11:16:29.087Z,253.13
2018-07-14T11:17:29.016Z,258.75
2018-07-14T11:18:28.950Z,270.00
2018-07-14T11:19:28.883Z,286.88
2018-07-14T11:20:28.889Z,303.75
2018-07-14T11:21:29.803Z,320.63
2018-07-14T11:22:28.741Z,315.00
2018-07-14T11:23:28.642Z,292.50
2018-07-14T11:24:28.611Z,264.38
2018-07-14T11:25:29.289Z,253.13
2018-07-14T11:26:28.449Z,247.50
2018-07-14T11:27:28.338Z,241.88
2018-07-14T11:28:28.317Z,298.13
2018-07-14T11:29:28.231Z,354.38
2018-07-14T11:30:28.812Z,399.38
2018-07-14T11:31:28.092Z,354.38
2018-07-14T11:32:28.038Z,315.00
2018-07-14T11:33:27.973Z,264.38
2018-07-14T11:34:27.878Z,258.75
2018-07-14T11:35:27.824Z,253.13
2018-07-14T11:36:27.689Z,230.63
2018-07-14T11:37:27.613Z,208.13
2018-07-14T11:38:27.542Z,185.63
2018-07-14T11:39:27.473Z,163.13
2018-07-14T11:40:27.402Z,146.25
2018-07-14T11:41:27.363Z,135.00
2018-07-14T11:42:27.262Z,123.75
2018-07-14T11:43:27.199Z,118.13
2018-07-14T11:44:27.146Z,106.88
2018-07-14T11:45:27.051Z,101.25
2018-07-14T11:46:27.002Z,90.00
2018-07-14T11:47:26.959Z,90.00
2018-07-14T11:48:26.840Z,84.38
2018-07-14T11:49:26.775Z,84.38
2018-07-14T11:50:26.704Z,90.00
2018-07-14T11:51:26.635Z,90.00
2018-07-14T11:52:26.560Z,90.00
2018-07-14T11:53:26.489Z,90.00
2018-07-14T11:54:26.421Z,95.63
2018-07-14T11:55:26.356Z,101.25
2018-07-14T11:56:26.293Z,112.50
2018-07-14T11:57:26.205Z,118.13
2018-07-14T11:58:26.140Z,129.38
2018-07-14T11:59:26.067Z,135.00
2018-07-14T12:00:26.008Z,146.25
2018-07-14T12:01:25.973Z,157.50
2018-07-14T12:02:25.863Z,168.75
2018-07-14T12:03:25.784Z,174.38
2018-07-14T12:04:25.719Z,180.00
2018-07-14T12:05:25.646Z,180.00
2018-07-14T12:06:25.574Z,180.00
2018-07-14T12:07:25.506Z,185.63
2018-07-14T12:08:25.440Z,185.63
2018-07-14T12:09:25.358Z,196.88
2018-07-14T12:10:25.293Z,202.50
2018-07-14T12:11:25.228Z,213.75
2018-07-14T12:12:25.149Z,219.38
2018-07-14T12:13:25.138Z,230.63
2018-07-14T12:14:25.024Z,236.25
2018-07-14T12:15:24.957Z,247.50
2018-07-14T12:16:24.869Z,253.13
2018-07-14T12:17:24.798Z,264.38
2018-07-14T12:18:24.728Z,270.00
2018-07-14T12:19:24.652Z,281.25
2018-07-14T12:20:24.593Z,292.50
2018-07-14T12:21:24.516Z,298.13
2018-07-14T12:22:24.455Z,315.00
2018-07-14T12:23:24.373Z,337.50
2018-07-14T12:24:24.303Z,360.00
2018-07-14T12:25:24.227Z,382.50
2018-07-14T12:26:24.163Z,416.25
2018-07-14T12:27:24.088Z,450.00
2018-07-14T12:28:24.021Z,483.75
2018-07-14T12:29:23.965Z,511.88
2018-07-14T12:30:23.943Z,534.38
2018-07-14T12:31:23.803Z,562.50
2018-07-14T12:32:23.733Z,590.63
2018-07-14T12:33:23.670Z,590.63
2018-07-14T12:34:23.594Z,545.63
2018-07-14T12:35:23.573Z,528.75
2018-07-14T12:36:23.517Z,489.38
2018-07-14T12:37:23.434Z,455.63
2018-07-14T12:38:23.349Z,455.63
2018-07-14T12:39:23.293Z,382.50
2018-07-14T12:40:23.199Z,371.25
2018-07-14T12:41:23.159Z,360.00
2018-07-14T12:42:23.101Z,326.25